If you wish to contribute or participate in the discussions about articles you are invited to join SKYbrary as a registered user

 Actions

Châlons-Vatry Air Base

From SKYbrary Wiki

LFOK
Airport
ICAO: LFOK – IATA: XCR
Summary
Name Châlons-Vatry Air Base
Region Europe
Territory France FR.gif
Location , Champagne-Ardenne
Serving Chalons
Elevation 178.918 m
587 ft
587 ft178.918 m
Type medium airport
Coordinates 48° 46' 33.86" N, 4° 11' 4.17" E
Runways
Designator Length Width Surface ROPS
10/28 3860 m12,664.042 ft
45 m147.638 ft
CON yes/yes


METAR
Observation LFOK 231730Z AUTO 23003KT 200V300 7000 NSC 14/13 Q1010 BECMG 09010KT
Station Chalons-Vatry
Date/Time 23 October 2019 17:30:00
Wind direction 230°
Wind speed 03 kts
Lowest cloud amount nil significant cloud
Temperature 14°C
Dew point 13°C
Humidity 93%
QNH 1010 hPa
Weather condition n/a